UUDD

Domodedovo International Airport

Moscow, Russian Federation
TAF UUDD 210759Z 2109/2215 09004MPS 8000 BKN011 TX25/2112Z TN20/2200Z TEMPO 2109/2121 09009G15MPS 3100 -TSRA SCT011 BKN020CB TEMPO 2121/2208 3100 -SHRA BR SCT004 BKN015CB PROB40 TEMPO 2121/2208 -TSRA BKN015CB TEMPO 2208/2215 09009G15MPS 3000 -TSRA FEW006 BKN015CB
Issued Valid From Valid To
Jul-21 @ 07:59 UTC
(2 hours ago)
Jul-21 @ 09:00 UTC
(49 minutes ago)
Jul-22 @ 15:00 UTC
(-1 days ago)
Jul-21 @ 09:00 to Jul-22 @ 15:00
TAF UUDD 210759Z 2109/2215 09004MPS 8000 BKN011 TX25/2112Z TN20/2200Z
Wind Visibility Clouds
90° at 8 knots 7,998 meters
  • Broken at 1,100' AGL
Temporary Jul-21 @ 09:00 to Jul-21 @ 21:00
TEMPO 2109/2121 09009G15MPS 3100 -TSRA SCT011 BKN020CB
Wind Visibility Clouds Conditions
90° at 17 knots
 Gusting to 29 knots
3,106 meters
  • Scattered at 1,100' AGL
  • Broken at 2,000' AGL
  • Light Thunderstorm
  • Light Rain
Temporary Jul-21 @ 21:00 to Jul-22 @ 08:00
TEMPO 2121/2208 3100 -SHRA BR SCT004 BKN015CB
Visibility Clouds Conditions
3,106 meters
  • Scattered at 400' AGL
  • Broken at 1,500' AGL
  • Light Rain
  • Mist
Temporary  (Probability 40%) Jul-21 @ 21:00 to Jul-22 @ 08:00
PROB40 TEMPO 2121/2208 -TSRA BKN015CB
Clouds Conditions
  • Broken at 1,500' AGL
  • Light Thunderstorm
  • Light Rain
Temporary Jul-22 @ 08:00 to Jul-22 @ 15:00
TEMPO 2208/2215 09009G15MPS 3000 -TSRA FEW006 BKN015CB
Wind Visibility Clouds Conditions
90° at 17 knots
 Gusting to 29 knots
2,993 meters
  • Few at 600' AGL
  • Broken at 1,500' AGL
  • Light Thunderstorm
  • Light Rain
TAF UUDD 210759Z 2109/2215 09004MPS 8000 BKN011 TX25/2112Z TN20/2200Z TEMPO 2109/2121 09009G15MPS 3100 -TSRA SCT011 BKN020CB TEMPO 2121/2208 3100 -SHRA BR SCT004 BKN015CB PROB40 TEMPO 2121/2208 -TSRA BKN015CB TEMPO 2208/2215 09009G15MPS 3000 -TSRA FEW006 BKN015CB
Issued Jul-21 @ 07:59 UTC
(2 hours ago)
Valid From Jul-21 @ 09:00 UTC
(49 minutes ago)
Valid To Jul-22 @ 15:00 UTC
(-1 days ago)
Jul-21 @ 09:00 - Jul-22 @ 15:00
Wind Visibility
90° at 8 knots 7,998 meters
Clouds
  • Broken at 1,100' AGL
Temporary Jul-21 @ 09:00 - Jul-21 @ 21:00
Wind Visibility
90° at 17 knots
 Gusting to 29 knots
3,106 meters
Clouds
  • Scattered at 1,100' AGL
  • Broken at 2,000' AGL
Conditions
  • Light Thunderstorm
  • Light Rain
Temporary Jul-21 @ 21:00 - Jul-22 @ 08:00
Clouds
  • Scattered at 400' AGL
  • Broken at 1,500' AGL
Conditions
  • Light Rain
  • Mist
Probability 40% Temporary Jul-21 @ 21:00 - Jul-22 @ 08:00
Clouds
  • Broken at 1,500' AGL
Conditions
  • Light Thunderstorm
  • Light Rain
Temporary Jul-22 @ 08:00 - Jul-22 @ 15:00
Wind Visibility
90° at 17 knots
 Gusting to 29 knots
2,993 meters
Clouds
  • Few at 600' AGL
  • Broken at 1,500' AGL
Conditions
  • Light Thunderstorm
  • Light Rain